createdAt,value
2018-12-14T00:02:56.082Z,58.40
2018-12-14T00:08:00.253Z,54.37
2018-12-14T00:13:02.553Z,55.83
2018-12-14T00:18:04.844Z,48.93
2018-12-14T00:23:07.977Z,51.13
2018-12-14T00:28:10.637Z,49.17
2018-12-14T00:33:12.813Z,47.43
2018-12-14T00:38:14.977Z,46.57
2018-12-14T00:43:17.129Z,43.53
2018-12-14T00:48:19.199Z,44.93
2018-12-14T00:53:21.233Z,46.30
2018-12-14T00:58:23.394Z,50.67
2018-12-14T01:03:25.576Z,49.77
2018-12-14T01:08:27.739Z,44.83
2018-12-14T01:13:30.145Z,46.97
2018-12-14T01:18:32.445Z,47.03
2018-12-14T01:23:34.637Z,43.60
2018-12-14T01:28:36.702Z,50.03
2018-12-14T01:33:38.774Z,49.30
2018-12-14T01:38:47.822Z,47.67
2018-12-14T01:43:49.993Z,46.57
2018-12-14T01:48:52.166Z,44.67
2018-12-14T01:53:54.237Z,49.93
2018-12-14T01:58:56.334Z,45.27
2018-12-14T02:03:58.764Z,50.33
2018-12-14T02:09:01.874Z,48.53
2018-12-14T02:14:07.620Z,55.43
2018-12-14T02:19:10.089Z,49.13
2018-12-14T02:24:12.561Z,50.07
2018-12-14T02:29:14.622Z,54.90
2018-12-14T02:34:17.096Z,57.03
2018-12-14T02:39:19.584Z,61.00
2018-12-14T02:44:21.646Z,56.70
2018-12-14T02:49:23.697Z,51.57
2018-12-14T02:54:25.761Z,54.13
2018-12-14T02:59:27.870Z,51.63
2018-12-14T03:04:29.907Z,53.20
2018-12-14T03:09:32.666Z,53.57
2018-12-14T03:14:34.933Z,51.43
2018-12-14T03:19:37.093Z,46.53
2018-12-14T03:24:39.306Z,52.10
2018-12-14T03:29:48.582Z,49.60
2018-12-14T03:34:50.614Z,48.67
2018-12-14T03:39:52.677Z,46.57
2018-12-14T03:44:54.830Z,44.70
2018-12-14T03:49:56.878Z,43.23
2018-12-14T03:54:58.933Z,44.60
2018-12-14T04:00:01.012Z,46.53
2018-12-14T04:05:03.263Z,40.83
2018-12-14T04:10:05.980Z,42.20
2018-12-14T04:15:08.298Z,41.93
2018-12-14T04:20:10.850Z,38.17
2018-12-14T04:25:13.171Z,38.60
2018-12-14T04:30:15.348Z,38.07
2018-12-14T04:35:17.729Z,40.07
2018-12-14T04:40:20.029Z,36.07
2018-12-14T04:45:22.281Z,34.50
2018-12-14T04:50:24.442Z,34.67
2018-12-14T04:55:26.662Z,41.27
2018-12-14T05:00:28.806Z,39.73
2018-12-14T05:05:31.231Z,41.07
2018-12-14T05:10:33.730Z,40.47
2018-12-14T05:15:36.015Z,43.43
2018-12-14T05:20:38.178Z,42.20
2018-12-14T05:25:40.313Z,42.50
2018-12-14T05:30:42.393Z,42.47
2018-12-14T05:35:44.544Z,47.40
2018-12-14T05:40:46.720Z,47.23
2018-12-14T05:45:48.989Z,46.50
2018-12-14T05:50:51.157Z,47.20
2018-12-14T05:55:53.423Z,48.03
2018-12-14T06:00:55.650Z,46.10
2018-12-14T06:05:57.821Z,42.03
2018-12-14T06:11:00.049Z,44.97
2018-12-14T06:16:02.217Z,43.77
2018-12-14T06:21:04.504Z,43.37
2018-12-14T06:26:06.708Z,47.07
2018-12-14T06:31:08.749Z,49.87
2018-12-14T06:36:10.823Z,47.87
2018-12-14T06:41:12.874Z,53.87
2018-12-14T06:46:15.055Z,50.30
2018-12-14T06:51:17.393Z,55.03
2018-12-14T06:56:19.469Z,54.83
2018-12-14T07:01:21.522Z,59.57
2018-12-14T07:06:23.697Z,57.03
2018-12-14T07:11:25.778Z,57.00
2018-12-14T07:16:27.937Z,56.37
2018-12-14T07:21:30.126Z,56.13
2018-12-14T07:26:32.773Z,59.80
2018-12-14T07:31:34.850Z,63.37
2018-12-14T07:36:37.146Z,64.73
2018-12-14T07:41:39.445Z,57.27
2018-12-14T07:46:41.490Z,63.23
2018-12-14T07:51:43.661Z,61.83
2018-12-14T07:56:45.850Z,63.80
2018-12-14T08:01:48.047Z,60.33
2018-12-14T08:06:50.145Z,66.00
2018-12-14T08:11:52.345Z,62.10
2018-12-14T08:16:54.385Z,65.77
2018-12-14T08:21:56.454Z,60.60
2018-12-14T08:26:58.578Z,59.87
2018-12-14T08:32:00.650Z,59.60
2018-12-14T08:37:02.937Z,59.10
2018-12-14T08:42:05.221Z,54.33
2018-12-14T08:47:07.377Z,55.73
2018-12-14T08:52:09.533Z,61.47
2018-12-14T08:57:11.750Z,55.23
2018-12-14T09:02:14.060Z,51.73
2018-12-14T09:07:16.402Z,52.30
2018-12-14T09:12:18.580Z,51.17
2018-12-14T09:17:20.865Z,49.30
2018-12-14T09:22:23.398Z,51.27
2018-12-14T09:27:26.492Z,42.90
2018-12-14T09:32:28.754Z,45.47
2018-12-14T09:37:30.934Z,42.97
2018-12-14T09:42:33.229Z,40.63
2018-12-14T09:47:35.394Z,43.37
2018-12-14T09:52:37.473Z,42.10
2018-12-14T09:57:39.681Z,41.10
2018-12-14T10:02:49.846Z,39.27
2018-12-14T10:07:52.129Z,39.47
2018-12-14T10:12:54.329Z,36.73
2018-12-14T10:17:56.431Z,39.67
2018-12-14T10:22:58.607Z,35.60
2018-12-14T10:28:00.801Z,36.80
2018-12-14T10:33:02.958Z,37.90
2018-12-14T10:38:05.013Z,39.47
2018-12-14T10:43:07.398Z,36.20
2018-12-14T10:48:09.553Z,37.07
2018-12-14T10:53:12.145Z,36.70
2018-12-14T10:58:14.569Z,39.23
2018-12-14T11:03:16.721Z,34.57
2018-12-14T11:08:18.781Z,37.63
2018-12-14T11:13:21.429Z,35.50
2018-12-14T11:18:43.294Z,36.37
2018-12-14T11:23:45.347Z,34.03
2018-12-14T11:28:47.518Z,35.57
2018-12-14T11:33:49.699Z,58.67
2018-12-14T11:38:51.769Z,38.50
2018-12-14T11:43:53.845Z,35.10
2018-12-14T11:48:56.017Z,34.57
2018-12-14T11:53:58.165Z,35.57
2018-12-14T11:59:00.586Z,32.53
2018-12-14T12:04:02.974Z,39.83
2018-12-14T12:09:08.278Z,32.77
2018-12-14T12:14:11.538Z,37.77
2018-12-14T12:19:13.606Z,41.73
2018-12-14T12:24:15.797Z,48.70
2018-12-14T12:29:18.005Z,39.93
2018-12-14T12:34:20.075Z,41.73
2018-12-14T12:39:22.210Z,43.17
2018-12-14T12:44:24.497Z,42.87
2018-12-14T12:49:26.791Z,42.83
2018-12-14T12:54:28.969Z,45.83
2018-12-14T12:59:31.470Z,46.10
2018-12-14T13:04:33.693Z,40.17
2018-12-14T13:09:35.857Z,49.03
2018-12-14T13:14:40.183Z,44.23
2018-12-14T13:19:42.246Z,46.70
2018-12-14T13:24:44.313Z,48.17
2018-12-14T13:29:46.385Z,46.17
2018-12-14T13:34:48.436Z,44.47
2018-12-14T13:39:50.670Z,50.87
2018-12-14T13:44:54.045Z,47.43
2018-12-14T13:49:56.250Z,47.37
2018-12-14T13:54:58.405Z,46.27
2018-12-14T14:00:00.625Z,49.57
2018-12-14T14:05:09.830Z,42.23
2018-12-14T14:10:12.329Z,48.60
2018-12-14T14:15:20.709Z,46.70
2018-12-14T14:20:18.585Z,48.07
2018-12-14T14:25:20.858Z,48.50
2018-12-14T14:30:25.246Z,45.93
2018-12-14T14:35:27.586Z,51.17
2018-12-14T14:40:29.737Z,49.30
2018-12-14T14:45:38.775Z,49.40
2018-12-14T14:50:40.881Z,48.80
2018-12-14T14:55:43.041Z,51.70
2018-12-14T15:00:45.103Z,51.20
2018-12-14T15:05:47.593Z,54.93
2018-12-14T15:10:49.884Z,51.50
2018-12-14T15:15:52.182Z,53.43
2018-12-14T15:20:54.572Z,56.17
2018-12-14T15:25:56.737Z,55.50
2018-12-14T15:30:59.023Z,58.40
2018-12-14T15:36:01.255Z,64.60
2018-12-14T15:41:03.534Z,58.10
2018-12-14T15:46:05.786Z,59.83
2018-12-14T15:51:07.878Z,61.27
2018-12-14T15:56:10.029Z,58.17
2018-12-14T16:01:12.285Z,59.10
2018-12-14T16:06:14.513Z,58.73
2018-12-14T16:11:16.606Z,57.67
2018-12-14T16:16:18.753Z,58.03
2018-12-14T16:21:21.042Z,61.20
2018-12-14T16:26:23.746Z,60.93
2018-12-14T16:31:26.542Z,57.73
2018-12-14T16:36:28.661Z,61.10
2018-12-14T16:41:30.740Z,68.37
2018-12-14T16:46:33.029Z,66.67
2018-12-14T16:51:35.565Z,66.07
2018-12-14T16:56:37.666Z,66.47
2018-12-14T17:01:47.661Z,67.03
2018-12-14T17:06:50.199Z,70.33
2018-12-14T17:11:52.492Z,69.40
2018-12-14T17:16:54.814Z,63.67
2018-12-14T17:21:57.051Z,68.53
2018-12-14T17:26:59.813Z,70.03
2018-12-14T17:32:02.528Z,66.63
2018-12-14T17:37:05.937Z,71.73
2018-12-14T17:42:10.159Z,72.30
2018-12-14T17:47:12.782Z,73.90
2018-12-14T17:52:15.217Z,69.80
2018-12-14T17:57:17.372Z,80.43
2018-12-14T18:02:19.550Z,72.97
2018-12-14T18:07:21.894Z,81.30
2018-12-14T18:12:25.005Z,80.07
2018-12-14T18:17:27.221Z,81.63
2018-12-14T18:22:29.645Z,85.70
2018-12-14T18:27:34.625Z,81.63
2018-12-14T18:32:36.785Z,88.33
2018-12-14T18:37:38.914Z,82.97
2018-12-14T18:42:41.882Z,83.10
2018-12-14T18:47:45.052Z,84.57
2018-12-14T18:52:47.129Z,90.73
2018-12-14T18:57:49.376Z,81.93
2018-12-14T19:02:51.450Z,87.60
2018-12-14T19:07:53.823Z,83.90
2018-12-14T19:12:55.810Z,90.00
2018-12-14T19:17:57.959Z,96.53
2018-12-14T19:23:00.146Z,95.67
2018-12-14T19:28:02.353Z,84.13
2018-12-14T19:33:11.486Z,97.07
2018-12-14T19:38:13.653Z,92.43
2018-12-14T19:43:15.749Z,91.33
2018-12-14T19:48:17.790Z,83.80
2018-12-14T19:53:19.854Z,90.70
2018-12-14T19:58:22.109Z,96.20
2018-12-14T20:03:25.379Z,98.07
2018-12-14T20:08:27.737Z,92.87
2018-12-14T20:13:30.246Z,95.63
2018-12-14T20:18:32.449Z,95.67
2018-12-14T20:23:35.602Z,89.53
2018-12-14T20:28:37.899Z,96.37
2018-12-14T20:33:40.055Z,95.27
2018-12-14T20:38:42.101Z,101.57
2018-12-14T20:43:44.302Z,92.53
2018-12-14T20:48:46.540Z,88.33
2018-12-14T20:53:49.995Z,97.20
2018-12-14T20:58:52.274Z,91.10
2018-12-14T21:03:54.509Z,88.07
2018-12-14T21:08:56.674Z,93.43
2018-12-14T21:13:59.173Z,88.37
2018-12-14T21:19:01.669Z,89.07
2018-12-14T21:24:04.270Z,91.63
2018-12-14T21:29:07.546Z,93.53
2018-12-14T21:34:09.981Z,88.67
2018-12-14T21:39:12.315Z,93.73
2018-12-14T21:44:14.577Z,82.37
2018-12-14T21:49:17.002Z,96.90
2018-12-14T21:54:19.313Z,87.20
2018-12-14T21:59:21.394Z,90.53
2018-12-14T22:04:23.581Z,86.53
2018-12-14T22:09:26.639Z,86.13
2018-12-14T22:14:28.757Z,87.27
2018-12-14T22:19:30.920Z,90.70
2018-12-14T22:24:33.377Z,87.70
2018-12-14T22:29:35.553Z,89.57
2018-12-14T22:34:37.713Z,82.50
2018-12-14T22:39:40.197Z,82.23
2018-12-14T22:44:42.235Z,86.47
2018-12-14T22:49:44.442Z,84.00
2018-12-14T22:54:46.618Z,78.57
2018-12-14T22:59:48.796Z,81.53
2018-12-14T23:04:50.890Z,82.53
2018-12-14T23:09:53.109Z,88.60
2018-12-14T23:14:55.256Z,94.13
2018-12-14T23:19:57.313Z,77.63
2018-12-14T23:24:59.593Z,86.60
2018-12-14T23:30:02.247Z,77.67
2018-12-14T23:35:05.314Z,72.03
2018-12-14T23:40:07.463Z,76.47
2018-12-14T23:45:09.866Z,72.33
2018-12-14T23:50:12.690Z,74.43
2018-12-14T23:55:14.733Z,71.63
